sensor_id;sensor_type;location;lat;lon;timestamp;temperature;humidity
47114;DHT22;32867;51.556;6.832;2024-03-02T00:01:16;10.20;1.00
47114;DHT22;32867;51.556;6.832;2024-03-02T00:06:20;10.10;1.00
47114;DHT22;32867;51.556;6.832;2024-03-02T00:11:20;10.20;1.00
47114;DHT22;32867;51.556;6.832;2024-03-02T00:16:21;10.20;1.00
47114;DHT22;32867;51.556;6.832;2024-03-02T00:21:26;10.10;1.00
47114;DHT22;32867;51.556;6.832;2024-03-02T00:26:29;10.30;1.00
47114;DHT22;32867;51.556;6.832;2024-03-02T00:31:29;10.20;1.00
47114;DHT22;32867;51.556;6.832;2024-03-02T00:36:30;10.30;1.00
47114;DHT22;32867;51.556;6.832;2024-03-02T00:41:31;10.10;1.00
47114;DHT22;32867;51.556;6.832;2024-03-02T00:46:37;10.30;1.00
47114;DHT22;32867;51.556;6.832;2024-03-02T00:51:39;10.40;1.00
47114;DHT22;32867;51.556;6.832;2024-03-02T00:56:41;10.50;1.00
47114;DHT22;32867;51.556;6.832;2024-03-02T01:01:42;10.60;1.00
47114;DHT22;32867;51.556;6.832;2024-03-02T01:06:43;10.60;1.00
47114;DHT22;32867;51.556;6.832;2024-03-02T01:11:44;10.60;1.00
47114;DHT22;32867;51.556;6.832;2024-03-02T01:16:44;10.70;1.00
47114;DHT22;32867;51.556;6.832;2024-03-02T01:21:45;10.80;1.00
47114;DHT22;32867;51.556;6.832;2024-03-02T01:26:45;10.80;1.00
47114;DHT22;32867;51.556;6.832;2024-03-02T01:31:46;10.80;1.00
47114;DHT22;32867;51.556;6.832;2024-03-02T01:36:47;10.90;1.00
47114;DHT22;32867;51.556;6.832;2024-03-02T01:41:48;10.80;1.00
47114;DHT22;32867;51.556;6.832;2024-03-02T01:46:49;10.90;1.00
47114;DHT22;32867;51.556;6.832;2024-03-02T01:51:49;10.80;1.00
47114;DHT22;32867;51.556;6.832;2024-03-02T01:56:50;10.80;1.00
47114;DHT22;32867;51.556;6.832;2024-03-02T02:01:51;10.80;1.00
47114;DHT22;32867;51.556;6.832;2024-03-02T02:06:51;10.70;1.00
47114;DHT22;32867;51.556;6.832;2024-03-02T02:11:52;10.80;1.00
47114;DHT22;32867;51.556;6.832;2024-03-02T02:16:53;10.80;1.00
47114;DHT22;32867;51.556;6.832;2024-03-02T02:21:54;10.90;1.00
47114;DHT22;32867;51.556;6.832;2024-03-02T02:26:54;10.90;1.00
47114;DHT22;32867;51.556;6.832;2024-03-02T02:31:55;10.80;1.00
47114;DHT22;32867;51.556;6.832;2024-03-02T02:36:56;10.70;1.00
47114;DHT22;32867;51.556;6.832;2024-03-02T02:41:56;10.90;1.00
47114;DHT22;32867;51.556;6.832;2024-03-02T02:46:57;10.90;1.00
47114;DHT22;32867;51.556;6.832;2024-03-02T02:51:58;10.70;1.00
47114;DHT22;32867;51.556;6.832;2024-03-02T02:56:59;10.80;1.00
47114;DHT22;32867;51.556;6.832;2024-03-02T03:01:59;10.80;1.00
47114;DHT22;32867;51.556;6.832;2024-03-02T03:07:00;10.80;1.00
47114;DHT22;32867;51.556;6.832;2024-03-02T03:12:01;10.70;1.00
47114;DHT22;32867;51.556;6.832;2024-03-02T03:17:02;10.80;1.00
47114;DHT22;32867;51.556;6.832;2024-03-02T03:22:03;10.70;1.00
47114;DHT22;32867;51.556;6.832;2024-03-02T03:27:04;10.80;1.00
47114;DHT22;32867;51.556;6.832;2024-03-02T03:32:05;10.90;1.00
47114;DHT22;32867;51.556;6.832;2024-03-02T03:37:07;10.60;1.00
47114;DHT22;32867;51.556;6.832;2024-03-02T03:42:07;10.60;1.00
47114;DHT22;32867;51.556;6.832;2024-03-02T03:47:08;10.50;1.00
47114;DHT22;32867;51.556;6.832;2024-03-02T03:52:09;10.50;1.00
47114;DHT22;32867;51.556;6.832;2024-03-02T03:57:09;10.50;1.00
47114;DHT22;32867;51.556;6.832;2024-03-02T04:02:10;10.40;1.00
47114;DHT22;32867;51.556;6.832;2024-03-02T04:07:13;10.40;1.00
47114;DHT22;32867;51.556;6.832;2024-03-02T04:12:13;10.40;1.00
47114;DHT22;32867;51.556;6.832;2024-03-02T04:17:14;10.20;1.00
47114;DHT22;32867;51.556;6.832;2024-03-02T04:22:15;10.10;1.00
47114;DHT22;32867;51.556;6.832;2024-03-02T04:27:15;10.20;1.00
47114;DHT22;32867;51.556;6.832;2024-03-02T04:32:16;10.10;1.00
47114;DHT22;32867;51.556;6.832;2024-03-02T04:37:17;9.90;1.00
47114;DHT22;32867;51.556;6.832;2024-03-02T04:42:17;10.10;1.00
47114;DHT22;32867;51.556;6.832;2024-03-02T04:47:18;10.00;1.00
47114;DHT22;32867;51.556;6.832;2024-03-02T04:52:18;9.90;1.00
47114;DHT22;32867;51.556;6.832;2024-03-02T04:57:19;9.80;1.00
47114;DHT22;32867;51.556;6.832;2024-03-02T05:02:20;9.90;1.00
47114;DHT22;32867;51.556;6.832;2024-03-02T05:07:20;9.80;1.00
47114;DHT22;32867;51.556;6.832;2024-03-02T05:12:21;9.80;1.00
47114;DHT22;32867;51.556;6.832;2024-03-02T05:17:41;9.80;1.00
47114;DHT22;32867;51.556;6.832;2024-03-02T05:22:45;9.70;1.00
47114;DHT22;32867;51.556;6.832;2024-03-02T05:27:46;9.80;1.00
47114;DHT22;32867;51.556;6.832;2024-03-02T05:32:46;9.60;1.00
47114;DHT22;32867;51.556;6.832;2024-03-02T05:37:47;9.70;1.00
47114;DHT22;32867;51.556;6.832;2024-03-02T05:42:48;9.70;1.00
47114;DHT22;32867;51.556;6.832;2024-03-02T05:47:48;9.60;1.00
47114;DHT22;32867;51.556;6.832;2024-03-02T05:52:49;9.50;1.00
47114;DHT22;32867;51.556;6.832;2024-03-02T05:57:49;9.60;1.00
47114;DHT22;32867;51.556;6.832;2024-03-02T06:03:04;9.50;1.00
47114;DHT22;32867;51.556;6.832;2024-03-02T06:08:04;9.50;1.00
47114;DHT22;32867;51.556;6.832;2024-03-02T06:13:05;9.50;1.00
47114;DHT22;32867;51.556;6.832;2024-03-02T06:18:06;9.40;1.00
47114;DHT22;32867;51.556;6.832;2024-03-02T06:23:08;9.30;1.00
47114;DHT22;32867;51.556;6.832;2024-03-02T06:28:08;9.40;1.00
47114;DHT22;32867;51.556;6.832;2024-03-02T06:33:09;9.30;1.00
47114;DHT22;32867;51.556;6.832;2024-03-02T06:38:10;9.40;1.00
47114;DHT22;32867;51.556;6.832;2024-03-02T06:43:11;9.30;1.00
47114;DHT22;32867;51.556;6.832;2024-03-02T06:48:11;9.40;1.00
47114;DHT22;32867;51.556;6.832;2024-03-02T06:53:12;9.30;1.00
47114;DHT22;32867;51.556;6.832;2024-03-02T06:58:13;9.30;1.00
47114;DHT22;32867;51.556;6.832;2024-03-02T07:03:15;9.30;1.00
47114;DHT22;32867;51.556;6.832;2024-03-02T07:08:16;9.40;1.00
47114;DHT22;32867;51.556;6.832;2024-03-02T07:13:17;9.40;1.00
47114;DHT22;32867;51.556;6.832;2024-03-02T07:18:17;10.00;1.00
47114;DHT22;32867;51.556;6.832;2024-03-02T07:23:18;10.50;1.00
47114;DHT22;32867;51.556;6.832;2024-03-02T07:28:20;10.60;1.00
47114;DHT22;32867;51.556;6.832;2024-03-02T07:33:21;10.50;1.00
47114;DHT22;32867;51.556;6.832;2024-03-02T07:38:23;10.20;1.00
47114;DHT22;32867;51.556;6.832;2024-03-02T07:43:24;10.30;1.00
47114;DHT22;32867;51.556;6.832;2024-03-02T07:48:24;10.10;1.00
47114;DHT22;32867;51.556;6.832;2024-03-02T07:53:25;10.10;1.00
47114;DHT22;32867;51.556;6.832;2024-03-02T07:58:26;10.20;1.00
47114;DHT22;32867;51.556;6.832;2024-03-02T08:03:26;10.40;1.00
47114;DHT22;32867;51.556;6.832;2024-03-02T08:08:27;10.70;1.00
47114;DHT22;32867;51.556;6.832;2024-03-02T08:13:28;10.70;1.00
47114;DHT22;32867;51.556;6.832;2024-03-02T08:18:28;10.60;1.00
47114;DHT22;32867;51.556;6.832;2024-03-02T08:23:29;10.70;1.00
47114;DHT22;32867;51.556;6.832;2024-03-02T08:28:31;10.80;1.00
47114;DHT22;32867;51.556;6.832;2024-03-02T08:33:31;11.00;1.00
47114;DHT22;32867;51.556;6.832;2024-03-02T08:38:32;11.10;1.00
47114;DHT22;32867;51.556;6.832;2024-03-02T08:43:33;11.30;1.00
47114;DHT22;32867;51.556;6.832;2024-03-02T08:48:34;11.50;1.00
47114;DHT22;32867;51.556;6.832;2024-03-02T08:53:35;11.70;1.00
47114;DHT22;32867;51.556;6.832;2024-03-02T08:58:36;11.80;1.00
47114;DHT22;32867;51.556;6.832;2024-03-02T09:03:36;11.90;1.00
47114;DHT22;32867;51.556;6.832;2024-03-02T09:08:37;11.60;1.00
47114;DHT22;32867;51.556;6.832;2024-03-02T09:13:39;11.70;1.00
47114;DHT22;32867;51.556;6.832;2024-03-02T09:18:39;12.10;1.00
47114;DHT22;32867;51.556;6.832;2024-03-02T09:23:40;12.30;1.00
47114;DHT22;32867;51.556;6.832;2024-03-02T09:28:44;12.30;1.00
47114;DHT22;32867;51.556;6.832;2024-03-02T09:33:44;12.30;1.00
47114;DHT22;32867;51.556;6.832;2024-03-02T09:38:45;12.40;1.00
47114;DHT22;32867;51.556;6.832;2024-03-02T09:43:46;12.50;1.00
47114;DHT22;32867;51.556;6.832;2024-03-02T09:48:47;12.70;1.00
47114;DHT22;32867;51.556;6.832;2024-03-02T09:53:48;12.80;1.00
47114;DHT22;32867;51.556;6.832;2024-03-02T09:58:49;13.10;1.00
47114;DHT22;32867;51.556;6.832;2024-03-02T10:03:50;12.80;1.00
47114;DHT22;32867;51.556;6.832;2024-03-02T10:08:51;12.90;1.00
47114;DHT22;32867;51.556;6.832;2024-03-02T10:14:10;13.30;1.00
47114;DHT22;32867;51.556;6.832;2024-03-02T10:19:22;13.40;1.00
47114;DHT22;32867;51.556;6.832;2024-03-02T10:24:23;13.40;1.00
47114;DHT22;32867;51.556;6.832;2024-03-02T10:29:24;13.50;1.00
47114;DHT22;32867;51.556;6.832;2024-03-02T10:34:27;13.70;1.00
47114;DHT22;32867;51.556;6.832;2024-03-02T10:39:28;14.00;1.00
47114;DHT22;32867;51.556;6.832;2024-03-02T10:44:30;14.00;1.00
47114;DHT22;32867;51.556;6.832;2024-03-02T10:49:32;14.30;1.00
47114;DHT22;32867;51.556;6.832;2024-03-02T10:54:33;14.10;1.00
47114;DHT22;32867;51.556;6.832;2024-03-02T10:59:37;14.20;1.00
47114;DHT22;32867;51.556;6.832;2024-03-02T11:04:46;14.50;1.00
47114;DHT22;32867;51.556;6.832;2024-03-02T11:10:02;14.70;1.00
47114;DHT22;32867;51.556;6.832;2024-03-02T11:15:10;14.60;1.00
47114;DHT22;32867;51.556;6.832;2024-03-02T11:20:12;14.70;1.00
47114;DHT22;32867;51.556;6.832;2024-03-02T11:25:27;14.80;1.00
47114;DHT22;32867;51.556;6.832;2024-03-02T11:35:35;15.20;1.00
47114;DHT22;32867;51.556;6.832;2024-03-02T11:40:36;15.70;1.00
47114;DHT22;32867;51.556;6.832;2024-03-02T11:45:37;15.70;1.00
47114;DHT22;32867;51.556;6.832;2024-03-02T11:50:50;15.70;1.00
47114;DHT22;32867;51.556;6.832;2024-03-02T11:55:52;15.60;1.00
47114;DHT22;32867;51.556;6.832;2024-03-02T12:00:55;15.60;1.00
47114;DHT22;32867;51.556;6.832;2024-03-02T12:05:56;16.10;1.00
47114;DHT22;32867;51.556;6.832;2024-03-02T12:11:01;16.30;1.00
47114;DHT22;32867;51.556;6.832;2024-03-02T12:16:02;16.30;1.00
47114;DHT22;32867;51.556;6.832;2024-03-02T12:21:03;16.50;1.00
47114;DHT22;32867;51.556;6.832;2024-03-02T12:26:06;16.70;1.00
47114;DHT22;32867;51.556;6.832;2024-03-02T12:31:08;16.60;1.00
47114;DHT22;32867;51.556;6.832;2024-03-02T12:36:12;16.50;1.00
47114;DHT22;32867;51.556;6.832;2024-03-02T12:41:16;16.30;1.00
47114;DHT22;32867;51.556;6.832;2024-03-02T12:46:17;16.50;1.00
47114;DHT22;32867;51.556;6.832;2024-03-02T12:51:17;16.20;1.00
47114;DHT22;32867;51.556;6.832;2024-03-02T12:56:18;15.90;1.00
47114;DHT22;32867;51.556;6.832;2024-03-02T13:01:19;16.20;1.00
47114;DHT22;32867;51.556;6.832;2024-03-02T13:06:20;16.00;1.00
47114;DHT22;32867;51.556;6.832;2024-03-02T13:11:22;15.90;1.00
47114;DHT22;32867;51.556;6.832;2024-03-02T13:16:23;15.90;1.00
47114;DHT22;32867;51.556;6.832;2024-03-02T13:21:24;16.00;1.00
47114;DHT22;32867;51.556;6.832;2024-03-02T13:26:25;15.70;1.00
47114;DHT22;32867;51.556;6.832;2024-03-02T13:31:25;15.40;1.00
47114;DHT22;32867;51.556;6.832;2024-03-02T13:36:26;15.50;1.00
47114;DHT22;32867;51.556;6.832;2024-03-02T13:41:27;15.50;1.00
47114;DHT22;32867;51.556;6.832;2024-03-02T13:46:28;15.70;1.00
47114;DHT22;32867;51.556;6.832;2024-03-02T13:51:28;15.80;1.00
47114;DHT22;32867;51.556;6.832;2024-03-02T13:56:29;15.60;1.00
47114;DHT22;32867;51.556;6.832;2024-03-02T14:01:30;15.60;1.00
47114;DHT22;32867;51.556;6.832;2024-03-02T14:06:31;15.60;1.00
47114;DHT22;32867;51.556;6.832;2024-03-02T14:11:31;15.50;1.00
47114;DHT22;32867;51.556;6.832;2024-03-02T14:16:32;15.50;1.00
47114;DHT22;32867;51.556;6.832;2024-03-02T14:21:32;15.60;1.00
47114;DHT22;32867;51.556;6.832;2024-03-02T14:26:34;15.30;1.00
47114;DHT22;32867;51.556;6.832;2024-03-02T14:31:34;15.30;1.00
47114;DHT22;32867;51.556;6.832;2024-03-02T14:36:35;15.40;1.00
47114;DHT22;32867;51.556;6.832;2024-03-02T14:41:36;15.20;1.00
47114;DHT22;32867;51.556;6.832;2024-03-02T14:46:37;15.20;1.00
47114;DHT22;32867;51.556;6.832;2024-03-02T14:51:38;15.30;1.00
47114;DHT22;32867;51.556;6.832;2024-03-02T14:56:38;15.60;1.00
47114;DHT22;32867;51.556;6.832;2024-03-02T15:01:39;15.80;1.00
47114;DHT22;32867;51.556;6.832;2024-03-02T15:06:40;15.70;1.00
47114;DHT22;32867;51.556;6.832;2024-03-02T15:11:40;15.70;1.00
47114;DHT22;32867;51.556;6.832;2024-03-02T15:16:42;15.90;1.00
47114;DHT22;32867;51.556;6.832;2024-03-02T15:21:43;16.30;1.00
47114;DHT22;32867;51.556;6.832;2024-03-02T15:26:43;16.50;1.00
47114;DHT22;32867;51.556;6.832;2024-03-02T15:31:44;16.70;1.00
47114;DHT22;32867;51.556;6.832;2024-03-02T15:36:45;17.10;1.00
47114;DHT22;32867;51.556;6.832;2024-03-02T15:41:45;17.40;1.00
47114;DHT22;32867;51.556;6.832;2024-03-02T15:46:46;17.30;1.00
47114;DHT22;32867;51.556;6.832;2024-03-02T15:51:47;16.80;1.00
47114;DHT22;32867;51.556;6.832;2024-03-02T15:56:47;16.60;1.00
47114;DHT22;32867;51.556;6.832;2024-03-02T16:01:48;16.60;1.00
47114;DHT22;32867;51.556;6.832;2024-03-02T16:06:49;16.40;1.00
47114;DHT22;32867;51.556;6.832;2024-03-02T16:11:49;16.10;1.00
47114;DHT22;32867;51.556;6.832;2024-03-02T16:16:50;15.90;1.00
47114;DHT22;32867;51.556;6.832;2024-03-02T16:21:51;15.80;1.00
47114;DHT22;32867;51.556;6.832;2024-03-02T16:26:51;15.70;1.00
47114;DHT22;32867;51.556;6.832;2024-03-02T16:31:52;15.50;1.00
47114;DHT22;32867;51.556;6.832;2024-03-02T16:36:52;15.30;1.00
47114;DHT22;32867;51.556;6.832;2024-03-02T16:41:55;15.40;1.00
47114;DHT22;32867;51.556;6.832;2024-03-02T16:46:56;15.20;1.00
47114;DHT22;32867;51.556;6.832;2024-03-02T16:51:57;15.20;1.00
47114;DHT22;32867;51.556;6.832;2024-03-02T16:56:58;15.10;1.00
47114;DHT22;32867;51.556;6.832;2024-03-02T17:01:58;15.00;1.00
47114;DHT22;32867;51.556;6.832;2024-03-02T17:06:59;15.10;1.00
47114;DHT22;32867;51.556;6.832;2024-03-02T17:12:00;15.00;1.00
47114;DHT22;32867;51.556;6.832;2024-03-02T17:17:00;14.80;1.00
47114;DHT22;32867;51.556;6.832;2024-03-02T17:22:01;14.80;1.00
47114;DHT22;32867;51.556;6.832;2024-03-02T17:27:02;14.90;1.00
47114;DHT22;32867;51.556;6.832;2024-03-02T17:32:03;14.80;1.00
47114;DHT22;32867;51.556;6.832;2024-03-02T17:37:04;14.70;1.00
47114;DHT22;32867;51.556;6.832;2024-03-02T17:42:04;14.80;1.00
47114;DHT22;32867;51.556;6.832;2024-03-02T17:47:05;14.70;1.00
47114;DHT22;32867;51.556;6.832;2024-03-02T17:52:06;14.70;1.00
47114;DHT22;32867;51.556;6.832;2024-03-02T17:57:06;14.70;1.00
47114;DHT22;32867;51.556;6.832;2024-03-02T18:02:07;14.70;1.00
47114;DHT22;32867;51.556;6.832;2024-03-02T18:07:08;14.60;1.00
47114;DHT22;32867;51.556;6.832;2024-03-02T18:12:09;14.80;1.00
47114;DHT22;32867;51.556;6.832;2024-03-02T18:17:09;14.80;1.00
47114;DHT22;32867;51.556;6.832;2024-03-02T18:22:10;14.50;1.00
47114;DHT22;32867;51.556;6.832;2024-03-02T18:27:11;14.60;1.00
47114;DHT22;32867;51.556;6.832;2024-03-02T18:32:12;14.70;1.00
47114;DHT22;32867;51.556;6.832;2024-03-02T18:37:13;14.60;1.00
47114;DHT22;32867;51.556;6.832;2024-03-02T18:42:15;14.60;1.00
47114;DHT22;32867;51.556;6.832;2024-03-02T18:47:16;14.60;1.00
47114;DHT22;32867;51.556;6.832;2024-03-02T18:52:17;14.50;1.00
47114;DHT22;32867;51.556;6.832;2024-03-02T18:57:18;14.50;1.00
47114;DHT22;32867;51.556;6.832;2024-03-02T19:02:18;14.50;1.00
47114;DHT22;32867;51.556;6.832;2024-03-02T19:07:19;14.40;1.00
47114;DHT22;32867;51.556;6.832;2024-03-02T19:12:20;14.50;1.00
47114;DHT22;32867;51.556;6.832;2024-03-02T19:17:22;14.30;1.00
47114;DHT22;32867;51.556;6.832;2024-03-02T19:22:23;14.40;1.00
47114;DHT22;32867;51.556;6.832;2024-03-02T19:27:24;14.60;1.00
47114;DHT22;32867;51.556;6.832;2024-03-02T19:32:25;14.70;1.00
47114;DHT22;32867;51.556;6.832;2024-03-02T19:37:26;14.70;1.00
47114;DHT22;32867;51.556;6.832;2024-03-02T19:42:26;14.50;1.00
47114;DHT22;32867;51.556;6.832;2024-03-02T19:47:28;14.40;1.00
47114;DHT22;32867;51.556;6.832;2024-03-02T19:52:32;14.30;1.00
47114;DHT22;32867;51.556;6.832;2024-03-02T19:57:33;14.40;1.00
47114;DHT22;32867;51.556;6.832;2024-03-02T20:02:41;14.40;1.00
47114;DHT22;32867;51.556;6.832;2024-03-02T20:07:42;14.20;1.00
47114;DHT22;32867;51.556;6.832;2024-03-02T20:12:43;14.20;1.00
47114;DHT22;32867;51.556;6.832;2024-03-02T20:17:44;14.20;1.00
47114;DHT22;32867;51.556;6.832;2024-03-02T20:22:44;14.30;1.00
47114;DHT22;32867;51.556;6.832;2024-03-02T20:27:46;14.10;1.00
47114;DHT22;32867;51.556;6.832;2024-03-02T20:32:47;14.00;1.00
47114;DHT22;32867;51.556;6.832;2024-03-02T20:37:47;14.00;1.00
47114;DHT22;32867;51.556;6.832;2024-03-02T20:42:48;13.90;1.00
47114;DHT22;32867;51.556;6.832;2024-03-02T20:47:48;13.90;1.00
47114;DHT22;32867;51.556;6.832;2024-03-02T20:52:49;13.90;1.00
47114;DHT22;32867;51.556;6.832;2024-03-02T20:57:50;14.00;1.00
47114;DHT22;32867;51.556;6.832;2024-03-02T21:02:50;13.90;1.00
47114;DHT22;32867;51.556;6.832;2024-03-02T21:07:51;13.90;1.00
47114;DHT22;32867;51.556;6.832;2024-03-02T21:12:51;13.80;1.00
47114;DHT22;32867;51.556;6.832;2024-03-02T21:17:52;13.80;1.00
47114;DHT22;32867;51.556;6.832;2024-03-02T21:22:53;13.80;1.00
47114;DHT22;32867;51.556;6.832;2024-03-02T21:27:54;13.70;1.00
47114;DHT22;32867;51.556;6.832;2024-03-02T21:32:54;13.70;1.00
47114;DHT22;32867;51.556;6.832;2024-03-02T21:37:55;13.70;1.00
47114;DHT22;32867;51.556;6.832;2024-03-02T21:42:56;13.70;1.00
47114;DHT22;32867;51.556;6.832;2024-03-02T21:47:57;13.70;1.00
47114;DHT22;32867;51.556;6.832;2024-03-02T21:52:57;13.60;1.00
47114;DHT22;32867;51.556;6.832;2024-03-02T21:57:59;13.60;1.00
47114;DHT22;32867;51.556;6.832;2024-03-02T22:02:59;13.60;1.00
47114;DHT22;32867;51.556;6.832;2024-03-02T22:08:01;13.60;1.00
47114;DHT22;32867;51.556;6.832;2024-03-02T22:13:02;13.60;1.00
47114;DHT22;32867;51.556;6.832;2024-03-02T22:18:03;13.60;1.00
47114;DHT22;32867;51.556;6.832;2024-03-02T22:23:03;13.80;1.00
47114;DHT22;32867;51.556;6.832;2024-03-02T22:28:04;13.80;1.00
47114;DHT22;32867;51.556;6.832;2024-03-02T22:33:05;13.70;1.00
47114;DHT22;32867;51.556;6.832;2024-03-02T22:38:05;13.70;1.00
47114;DHT22;32867;51.556;6.832;2024-03-02T22:43:06;13.60;1.00
47114;DHT22;32867;51.556;6.832;2024-03-02T22:48:07;13.60;1.00
47114;DHT22;32867;51.556;6.832;2024-03-02T22:53:07;13.50;1.00
47114;DHT22;32867;51.556;6.832;2024-03-02T22:58:08;13.40;1.00
47114;DHT22;32867;51.556;6.832;2024-03-02T23:03:09;13.40;1.00
47114;DHT22;32867;51.556;6.832;2024-03-02T23:08:09;13.30;1.00
47114;DHT22;32867;51.556;6.832;2024-03-02T23:13:10;13.30;1.00
47114;DHT22;32867;51.556;6.832;2024-03-02T23:18:11;13.20;1.00
47114;DHT22;32867;51.556;6.832;2024-03-02T23:23:11;13.10;1.00
47114;DHT22;32867;51.556;6.832;2024-03-02T23:28:12;13.10;1.00
47114;DHT22;32867;51.556;6.832;2024-03-02T23:33:13;13.10;1.00
47114;DHT22;32867;51.556;6.832;2024-03-02T23:38:14;13.00;1.00
47114;DHT22;32867;51.556;6.832;2024-03-02T23:43:14;13.00;1.00
47114;DHT22;32867;51.556;6.832;2024-03-02T23:48:15;12.90;1.00
47114;DHT22;32867;51.556;6.832;2024-03-02T23:53:16;12.80;1.00
47114;DHT22;32867;51.556;6.832;2024-03-02T23:58:17;12.80;1.00
